createdAt,value
2023-08-29T00:00:16.130Z,11.9
2023-08-29T00:06:06.268Z,13.4
2023-08-29T00:11:57.454Z,11.6
2023-08-29T00:17:50.358Z,12.3
2023-08-29T00:23:40.516Z,16.9
2023-08-29T00:29:32.926Z,18.2
2023-08-29T00:35:22.782Z,13.2
2023-08-29T00:41:12.813Z,14.6
2023-08-29T00:48:15.749Z,15.3
2023-08-29T00:54:04.041Z,16.9
2023-08-29T00:59:54.739Z,15.9
2023-08-29T01:05:45.437Z,15.1
2023-08-29T01:11:35.451Z,17.4
2023-08-29T01:17:25.939Z,20.3
2023-08-29T01:23:20.746Z,21.4
2023-08-29T01:29:12.601Z,16.2
2023-08-29T01:35:07.832Z,18.3
2023-08-29T01:40:59.705Z,20.1
2023-08-29T01:46:52.010Z,20.8
2023-08-29T01:53:52.877Z,20.1
2023-08-29T01:59:44.123Z,16.9
2023-08-29T02:05:36.418Z,17.2
2023-08-29T02:11:28.089Z,20.5
2023-08-29T02:18:31.120Z,17.6
2023-08-29T02:24:22.725Z,19.4
2023-08-29T02:30:15.422Z,16.7
2023-08-29T02:36:12.470Z,15.9
2023-08-29T02:43:12.862Z,20.3
2023-08-29T02:49:04.357Z,19.7
2023-08-29T02:54:56.254Z,24.5
2023-08-29T03:01:57.774Z,21.3
2023-08-29T03:07:49.096Z,20
2023-08-29T03:13:40.974Z,18.7
2023-08-29T03:19:32.684Z,19.9
2023-08-29T03:25:25.966Z,22.1
2023-08-29T03:31:19.122Z,26
2023-08-29T03:37:15.503Z,29.4
2023-08-29T03:43:07.220Z,22.9
2023-08-29T03:48:59.621Z,25.1
2023-08-29T03:54:52.602Z,29
2023-08-29T04:00:44.893Z,27.8
2023-08-29T04:06:37.085Z,30.9
2023-08-29T04:12:29.818Z,27.9
2023-08-29T04:18:22.455Z,28.4
2023-08-29T04:24:15.048Z,32.3
2023-08-29T04:31:16.717Z,32
2023-08-29T04:38:18.910Z,36.9
2023-08-29T04:44:11.000Z,34.9
2023-08-29T04:50:03.818Z,34.6
2023-08-29T04:55:56.000Z,36
2023-08-29T05:01:54.089Z,35.5
2023-08-29T05:07:45.973Z,36.3
2023-08-29T05:14:47.777Z,33.7
2023-08-29T05:20:41.219Z,33.7
2023-08-29T05:26:36.372Z,33.5
2023-08-29T05:32:32.209Z,31.6
2023-08-29T05:38:24.566Z,34
2023-08-29T05:44:18.688Z,34.8
2023-08-29T05:50:10.293Z,34.1
2023-08-29T05:56:03.077Z,36.1
2023-08-29T06:01:55.765Z,38.9
2023-08-29T06:07:48.243Z,36.6
2023-08-29T06:13:40.371Z,35.7
2023-08-29T06:19:32.340Z,38.5
2023-08-29T06:25:26.409Z,38.5
2023-08-29T06:31:18.524Z,40.2
2023-08-29T06:37:11.061Z,39.4
2023-08-29T06:43:03.243Z,40.1
2023-08-29T06:50:06.158Z,37.7
2023-08-29T06:57:06.278Z,39.7
2023-08-29T07:04:07.756Z,39.3
2023-08-29T07:09:59.589Z,39.4
2023-08-29T07:15:54.810Z,39.3
2023-08-29T07:21:46.771Z,41.6
2023-08-29T07:27:37.772Z,41.7
2023-08-29T07:33:29.772Z,48.5
2023-08-29T07:39:23.949Z,55.1
2023-08-29T07:45:15.978Z,54.1
2023-08-29T07:51:11.392Z,55.1
2023-08-29T07:57:07.634Z,54.2
2023-08-29T08:04:09.549Z,60
2023-08-29T08:10:03.065Z,66
2023-08-29T08:15:53.277Z,75.2
2023-08-29T08:22:55.206Z,73
2023-08-29T08:28:47.004Z,83.6
2023-08-29T08:34:39.750Z,86.9
2023-08-29T08:41:40.851Z,78.8
2023-08-29T08:47:40.323Z,89.4
2023-08-29T08:53:33.805Z,96.3
2023-08-29T08:59:26.064Z,84.8
2023-08-29T09:08:45.942Z,74.7
2023-08-29T09:14:36.488Z,72.8
2023-08-29T09:20:28.668Z,79.5
2023-08-29T09:27:31.717Z,60.1
2023-08-29T09:34:32.202Z,62.8
2023-08-29T09:42:41.915Z,57.7
2023-08-29T09:49:44.052Z,61.7
2023-08-29T09:55:35.637Z,67.1
2023-08-29T10:01:27.855Z,67.5
2023-08-29T10:07:19.583Z,69.8
2023-08-29T10:13:11.480Z,68.4
2023-08-29T10:20:15.348Z,71.1
2023-08-29T10:29:37.583Z,71.6
2023-08-29T10:35:28.303Z,71.7
2023-08-29T10:41:21.821Z,66.4
2023-08-29T10:47:15.604Z,71.6
2023-08-29T10:53:08.031Z,64.3
2023-08-29T11:00:09.179Z,55.8
2023-08-29T11:06:01.541Z,62.4
2023-08-29T11:11:54.204Z,60.9
2023-08-29T11:17:46.588Z,63
2023-08-29T11:23:40.320Z,59.8
2023-08-29T11:29:34.037Z,58.3
2023-08-29T11:35:28.085Z,54.2
2023-08-29T11:43:29.035Z,57.2
2023-08-29T11:51:29.388Z,52.3
2023-08-29T11:57:22.633Z,59.6
2023-08-29T12:03:15.214Z,55.6
2023-08-29T12:09:07.818Z,51.8
2023-08-29T12:15:01.907Z,51.8
2023-08-29T12:20:54.116Z,51.4
2023-08-29T12:26:46.488Z,42.4
2023-08-29T12:32:39.863Z,41.8
2023-08-29T12:38:32.212Z,38.6
2023-08-29T12:44:24.224Z,35
2023-08-29T12:50:19.644Z,35.5
2023-08-29T12:56:15.695Z,31.9
2023-08-29T13:02:07.155Z,30.5
2023-08-29T13:08:01.112Z,31.7
2023-08-29T13:13:54.237Z,27.5
2023-08-29T13:19:46.582Z,27.7
2023-08-29T13:25:40.538Z,29.9
2023-08-29T13:31:33.109Z,27.3
2023-08-29T13:37:25.061Z,24.3
2023-08-29T13:43:17.800Z,27.1
2023-08-29T13:49:09.853Z,23.8
2023-08-29T13:55:03.939Z,34.4
2023-08-29T14:00:57.178Z,38.8
2023-08-29T14:06:48.682Z,35.6
2023-08-29T14:12:41.137Z,40.5
2023-08-29T14:18:31.548Z,39.7
2023-08-29T14:24:23.619Z,32.9
2023-08-29T14:30:15.999Z,37.7
2023-08-29T14:36:09.075Z,34.7
2023-08-29T14:42:03.904Z,39.5
2023-08-29T14:47:59.138Z,37.7
2023-08-29T14:53:52.061Z,37.8
2023-08-29T14:59:43.263Z,38.7
2023-08-29T15:05:36.859Z,36.2
2023-08-29T15:11:30.575Z,32.2
2023-08-29T15:17:23.816Z,30.6
2023-08-29T15:23:15.162Z,31.5
2023-08-29T15:29:07.885Z,30
2023-08-29T15:34:59.577Z,27.8
2023-08-29T15:40:52.793Z,29.1
2023-08-29T15:46:44.905Z,27.2
2023-08-29T15:52:38.243Z,24.3
2023-08-29T15:59:38.701Z,23.3
2023-08-29T16:05:35.049Z,22
2023-08-29T16:11:27.207Z,19.9
2023-08-29T16:18:34.033Z,17.2
2023-08-29T16:24:25.804Z,17
2023-08-29T16:32:36.698Z,14.3
2023-08-29T16:38:28.044Z,15.1
2023-08-29T16:44:20.772Z,16.2
2023-08-29T16:50:15.299Z,13.3
2023-08-29T16:56:08.098Z,12.2
2023-08-29T17:02:04.290Z,15.5
2023-08-29T17:09:10.269Z,11.7
2023-08-29T17:15:02.166Z,11.6
2023-08-29T17:20:54.909Z,11
2023-08-29T17:26:46.638Z,12
2023-08-29T17:32:42.341Z,10.7
2023-08-29T17:38:37.868Z,9
2023-08-29T17:51:35.938Z,9.8
2023-08-29T17:57:35.928Z,7.9
2023-08-29T18:03:27.654Z,8.5
2023-08-29T18:09:21.199Z,8.9
2023-08-29T18:15:13.700Z,10.3
2023-08-29T18:22:19.575Z,8.1
2023-08-29T18:28:12.244Z,12.9
2023-08-29T18:34:04.124Z,9.3
2023-08-29T18:39:55.217Z,9.7
2023-08-29T18:45:47.375Z,10.1
2023-08-29T18:51:38.642Z,11.3
2023-08-29T18:57:30.865Z,9.9
2023-08-29T19:04:33.367Z,9.3
2023-08-29T19:10:22.693Z,12
2023-08-29T19:16:13.199Z,10.7
2023-08-29T19:22:08.768Z,10.3
2023-08-29T19:28:00.337Z,10
2023-08-29T19:33:54.055Z,11.9
2023-08-29T19:39:48.497Z,12.4
2023-08-29T19:46:49.503Z,9.1
2023-08-29T19:52:39.880Z,8.9
2023-08-29T19:58:32.552Z,10.3
2023-08-29T20:04:24.061Z,9.6
2023-08-29T20:10:16.011Z,9.4
2023-08-29T20:17:19.728Z,10.6
2023-08-29T20:23:09.808Z,12.6
2023-08-29T20:29:04.875Z,11.9
2023-08-29T20:34:55.313Z,11.6
2023-08-29T20:40:48.155Z,10.3
2023-08-29T20:46:43.649Z,11.2
2023-08-29T20:52:35.384Z,12.3
2023-08-29T20:58:25.812Z,12.8
2023-08-29T21:04:17.744Z,11.9
2023-08-29T21:10:10.101Z,12.8
2023-08-29T21:16:02.710Z,12.6
2023-08-29T21:21:56.077Z,12
2023-08-29T21:27:50.543Z,10.5
2023-08-29T21:34:54.244Z,13
2023-08-29T21:40:44.477Z,13.1
2023-08-29T21:46:35.925Z,14
2023-08-29T21:52:32.712Z,12.2
2023-08-29T21:58:25.110Z,11
2023-08-29T22:04:18.718Z,12.1
2023-08-29T22:11:20.767Z,11.8
2023-08-29T22:17:11.688Z,11.1
2023-08-29T22:24:16.850Z,11.8
2023-08-29T22:30:14.249Z,12.3
2023-08-29T22:36:09.039Z,12
2023-08-29T22:42:03.605Z,12.4
2023-08-29T22:49:07.214Z,9.6
2023-08-29T22:54:57.978Z,11.4
2023-08-29T23:00:52.614Z,10.9
2023-08-29T23:06:45.251Z,9.6
2023-08-29T23:12:48.270Z,9
2023-08-29T23:24:44.694Z,11.1
2023-08-29T23:30:42.009Z,10.1
2023-08-29T23:36:48.514Z,9.2
2023-08-29T23:42:43.642Z,11.9
2023-08-29T23:48:40.164Z,16.1
2023-08-29T23:54:32.946Z,12.7
